Time;durP1;ratioP1;P1;durP2;ratioP2;P2;SDS_P1;SDS_P2;PMS_P1;PMS_P2;Temp;Humidity;BMP_temperature;BMP_pressure;BME280_temperature;BME280_humidity;BME280_pressure;Samples;Min_cycle;Max_cycle;Signal;HPM_P1;HPM_P2
2021/08/29 00:00:10;;;;;;;9.23;8.32;;;12.20;99.90;;;;;;5046666;28;20290;-67
2021/08/29 00:02:37;;;;;;;8.10;7.38;;;12.20;99.90;;;;;;5041753;28;20288;-68
2021/08/29 00:05:04;;;;;;;7.40;6.70;;;12.30;99.90;;;;;;5048487;28;20202;-67
2021/08/29 00:07:32;;;;;;;9.65;8.25;;;12.30;99.90;;;;;;5055313;28;20591;-67
2021/08/29 00:09:59;;;;;;;8.02;7.30;;;12.40;99.90;;;;;;5046820;28;20213;-67
2021/08/29 00:12:27;;;;;;;8.00;7.30;;;12.30;99.90;;;;;;5046454;28;20205;-67
2021/08/29 00:14:54;;;;;;;7.90;7.18;;;12.30;99.90;;;;;;5045830;28;20205;-68
2021/08/29 00:17:21;;;;;;;8.23;7.43;;;12.40;99.90;;;;;;5046175;28;20194;-68
2021/08/29 00:19:48;;;;;;;7.40;6.70;;;12.40;99.90;;;;;;5046203;28;20288;-68
2021/08/29 00:22:14;;;;;;;8.43;6.82;;;12.50;99.90;;;;;;5046244;28;20287;-68
2021/08/29 00:24:43;;;;;;;8.07;7.28;;;12.40;99.90;;;;;;5051004;28;20215;-67
2021/08/29 00:27:10;;;;;;;7.80;7.03;;;12.40;99.90;;;;;;5045039;28;20208;-67
2021/08/29 00:29:37;;;;;;;8.23;7.43;;;12.40;99.90;;;;;;5046210;28;20193;-67
2021/08/29 00:32:05;;;;;;;8.00;7.30;;;12.40;99.90;;;;;;5045988;28;20260;-68
2021/08/29 00:34:31;;;;;;;8.32;7.53;;;12.40;99.90;;;;;;5045792;28;20210;-67
2021/08/29 00:36:58;;;;;;;7.60;7.00;;;12.40;99.90;;;;;;5046031;28;20315;-67
2021/08/29 00:39:25;;;;;;;8.82;8.02;;;12.40;99.90;;;;;;5050476;28;20642;-67
2021/08/29 00:41:53;;;;;;;8.07;7.35;;;12.40;99.90;;;;;;5048491;28;20241;-68
2021/08/29 00:44:20;;;;;;;8.20;7.40;;;12.40;99.90;;;;;;5045348;28;20292;-67
2021/08/29 00:46:48;;;;;;;8.00;7.38;;;12.50;99.90;;;;;;5046114;28;20208;-67
2021/08/29 00:49:16;;;;;;;9.00;8.20;;;12.50;99.90;;;;;;5045660;28;20201;-67
2021/08/29 00:51:43;;;;;;;9.13;8.15;;;12.50;99.90;;;;;;5046912;28;20213;-68
2021/08/29 00:54:10;;;;;;;7.90;7.20;;;12.50;99.90;;;;;;5045264;28;20286;-67
2021/08/29 00:56:37;;;;;;;7.97;7.20;;;12.50;99.90;;;;;;5046143;28;20221;-67
2021/08/29 00:59:05;;;;;;;8.38;7.65;;;12.60;99.90;;;;;;5051142;28;20198;-68
2021/08/29 01:01:40;;;;;;;8.07;7.38;;;12.60;99.90;;;;;;5045129;28;20205;-67
2021/08/29 01:04:10;;;;;;;7.85;7.05;;;12.60;99.90;;;;;;5046022;28;21188;-68
2021/08/29 01:06:44;;;;;;;9.88;7.30;;;12.60;99.90;;;;;;5045766;28;20211;-67
2021/08/29 01:09:12;;;;;;;7.72;7.03;;;12.60;99.90;;;;;;5044964;28;20212;-67
2021/08/29 01:11:44;;;;;;;9.00;6.65;;;12.60;99.90;;;;;;5045254;28;20198;-68
2021/08/29 01:14:16;;;;;;;8.43;7.63;;;12.60;99.90;;;;;;5045963;28;20202;-67
2021/08/29 01:16:46;;;;;;;6.57;5.93;;;12.60;99.90;;;;;;5045540;28;20227;-67
2021/08/29 01:19:17;;;;;;;7.57;6.82;;;12.60;99.90;;;;;;5044703;28;20212;-67
2021/08/29 01:21:47;;;;;;;7.93;7.13;;;12.60;99.90;;;;;;5045141;28;20248;-68
2021/08/29 01:24:16;;;;;;;7.28;6.68;;;12.60;99.90;;;;;;5040918;28;20202;-67
2021/08/29 01:26:51;;;;;;;6.57;6.03;;;12.50;99.90;;;;;;5048424;28;20200;-67
2021/08/29 01:29:23;;;;;;;6.90;6.25;;;12.50;99.90;;;;;;5044883;28;20205;-68
2021/08/29 01:31:51;;;;;;;6.28;5.78;;;12.50;99.90;;;;;;5046002;28;20544;-67
2021/08/29 01:34:19;;;;;;;7.38;6.68;;;12.50;99.90;;;;;;5038631;28;20635;-67
2021/08/29 01:36:51;;;;;;;8.63;7.57;;;12.50;99.90;;;;;;5045282;28;20624;-67
2021/08/29 01:39:18;;;;;;;7.22;6.55;;;12.50;99.90;;;;;;5041850;28;20198;-67
2021/08/29 01:41:49;;;;;;;7.03;6.32;;;12.40;99.90;;;;;;5047802;28;20204;-68
2021/08/29 01:44:17;;;;;;;6.57;6.00;;;12.40;99.90;;;;;;5043840;28;20285;-67
2021/08/29 01:46:46;;;;;;;8.00;7.20;;;12.40;99.90;;;;;;5045328;28;20202;-67
2021/08/29 01:49:13;;;;;;;8.13;6.18;;;12.50;99.90;;;;;;5048223;28;20197;-67
2021/08/29 01:51:42;;;;;;;6.43;5.82;;;12.40;99.90;;;;;;5044958;28;20208;-67
2021/08/29 01:54:09;;;;;;;8.45;6.78;;;12.40;99.90;;;;;;5049428;28;20313;-67
2021/08/29 01:56:58;;;;;;;7.28;6.63;;;12.50;99.90;;;;;;5044786;28;20784;-67
2021/08/29 01:59:25;;;;;;;7.30;6.60;;;12.50;99.90;;;;;;5043588;28;20674;-67
2021/08/29 02:01:54;;;;;;;7.55;6.80;;;12.40;99.90;;;;;;5044910;28;20210;-67
2021/08/29 02:04:23;;;;;;;7.55;6.78;;;12.50;99.90;;;;;;5047444;28;20220;-67
2021/08/29 02:06:58;;;;;;;7.03;6.32;;;12.50;99.90;;;;;;5048635;28;20335;-67
2021/08/29 02:09:29;;;;;;;7.70;6.47;;;12.50;99.90;;;;;;5044782;28;20212;-67
2021/08/29 02:11:56;;;;;;;7.45;6.65;;;12.60;99.90;;;;;;5046739;28;20296;-67
2021/08/29 02:14:27;;;;;;;6.70;6.20;;;12.70;99.90;;;;;;5053915;28;20292;-67
2021/08/29 02:16:56;;;;;;;6.95;6.30;;;12.60;99.90;;;;;;5048103;28;20744;-68
2021/08/29 02:19:26;;;;;;;7.68;6.97;;;12.60;99.90;;;;;;5048279;28;20198;-67
2021/08/29 02:21:54;;;;;;;7.25;6.55;;;12.50;99.90;;;;;;5048978;28;20213;-67
2021/08/29 02:24:24;;;;;;;8.10;7.30;;;12.40;99.90;;;;;;5048859;28;20197;-67
2021/08/29 02:26:51;;;;;;;8.05;7.25;;;12.40;99.90;;;;;;5047730;28;20202;-67
2021/08/29 02:29:18;;;;;;;8.25;7.55;;;12.40;99.90;;;;;;5047537;28;20204;-67
2021/08/29 02:31:46;;;;;;;8.52;7.75;;;12.40;99.90;;;;;;5049395;28;20280;-67
2021/08/29 02:34:14;;;;;;;8.35;6.90;;;12.40;99.90;;;;;;5044239;28;20224;-67
2021/08/29 02:36:42;;;;;;;7.60;6.90;;;12.40;99.90;;;;;;5048779;28;20233;-67
2021/08/29 02:39:11;;;;;;;8.13;7.28;;;12.40;99.90;;;;;;5048804;28;20678;-66
2021/08/29 02:41:38;;;;;;;8.05;7.32;;;12.40;99.90;;;;;;5044080;28;20198;-67
2021/08/29 02:44:06;;;;;;;7.57;6.82;;;12.30;99.90;;;;;;5047675;28;20224;-66
2021/08/29 02:46:33;;;;;;;8.30;7.00;;;12.30;99.90;;;;;;5048000;28;20201;-66
2021/08/29 02:49:01;;;;;;;8.27;7.47;;;12.30;99.90;;;;;;5047962;28;20300;-66
2021/08/29 02:51:30;;;;;;;8.35;7.57;;;12.30;99.90;;;;;;5047970;28;20659;-66
2021/08/29 02:53:58;;;;;;;7.68;6.88;;;12.30;99.90;;;;;;5048423;28;20263;-66
2021/08/29 02:56:29;;;;;;;8.00;7.28;;;12.30;99.90;;;;;;5047569;28;20228;-66
2021/08/29 02:58:56;;;;;;;8.30;7.50;;;12.30;99.90;;;;;;5047889;28;20210;-66
2021/08/29 03:01:23;;;;;;;7.82;7.03;;;12.30;99.90;;;;;;5048382;28;20202;-66
2021/08/29 03:03:50;;;;;;;7.82;7.13;;;12.30;99.90;;;;;;5046818;28;20297;-66
2021/08/29 03:06:17;;;;;;;11.02;7.60;;;12.30;99.90;;;;;;5047662;28;20354;-66
2021/08/29 03:08:46;;;;;;;8.00;7.30;;;12.30;99.90;;;;;;5047370;28;20210;-66
2021/08/29 03:11:13;;;;;;;7.93;7.05;;;12.30;99.90;;;;;;5046535;28;20901;-66
2021/08/29 03:13:41;;;;;;;8.50;7.70;;;12.30;99.90;;;;;;5058853;28;20204;-66
2021/08/29 03:16:08;;;;;;;9.13;8.23;;;12.30;99.90;;;;;;5044173;28;20291;-66
2021/08/29 03:18:36;;;;;;;11.50;7.88;;;12.30;99.90;;;;;;5047294;28;20863;-66
2021/08/29 03:21:03;;;;;;;9.38;8.48;;;12.30;99.90;;;;;;5047487;28;20198;-65
2021/08/29 03:23:30;;;;;;;8.70;7.72;;;12.40;99.90;;;;;;5046498;28;20202;-66
2021/08/29 03:25:59;;;;;;;9.70;8.43;;;12.40;99.90;;;;;;5047419;28;20212;-66
2021/08/29 03:28:26;;;;;;;8.50;7.72;;;12.40;99.90;;;;;;5047300;28;20709;-66
2021/08/29 03:30:53;;;;;;;8.80;8.00;;;12.40;99.90;;;;;;5048566;28;20212;-65
2021/08/29 03:33:20;;;;;;;9.15;8.20;;;12.40;99.90;;;;;;5046824;28;20216;-65
2021/08/29 03:35:47;;;;;;;8.43;7.70;;;12.30;99.90;;;;;;5046815;28;20293;-66
2021/08/29 03:38:17;;;;;;;8.55;7.82;;;12.20;99.90;;;;;;5046830;28;20198;-65
2021/08/29 03:40:45;;;;;;;9.02;8.13;;;12.20;99.90;;;;;;5047694;28;20212;-65
2021/08/29 03:43:15;;;;;;;9.88;9.00;;;12.20;99.90;;;;;;5046975;28;20320;-65
2021/08/29 03:45:43;;;;;;;8.70;7.80;;;12.20;99.90;;;;;;5045416;28;20198;-65
2021/08/29 03:48:11;;;;;;;9.00;8.10;;;12.10;99.90;;;;;;5055722;28;20770;-65
2021/08/29 03:50:38;;;;;;;10.43;8.82;;;12.20;99.90;;;;;;5047581;28;20229;-65
2021/08/29 03:53:06;;;;;;;9.27;8.32;;;12.20;99.90;;;;;;5047391;28;20452;-66
2021/08/29 03:55:34;;;;;;;9.20;8.40;;;12.20;99.90;;;;;;5043359;28;20220;-66
2021/08/29 03:58:03;;;;;;;10.15;9.25;;;12.10;99.90;;;;;;5046253;28;20248;-66
2021/08/29 04:00:32;;;;;;;9.48;8.00;;;12.20;99.90;;;;;;5046989;28;20202;-66
2021/08/29 04:02:59;;;;;;;8.60;7.80;;;12.30;99.90;;;;;;5047921;28;20211;-66
2021/08/29 04:05:26;;;;;;;9.43;8.50;;;12.30;99.90;;;;;;5053058;28;20204;-66
2021/08/29 04:07:55;;;;;;;10.55;9.45;;;12.30;99.90;;;;;;5046140;28;20209;-66
2021/08/29 04:10:23;;;;;;;10.40;9.27;;;12.20;99.90;;;;;;5046641;28;20202;-66
2021/08/29 04:12:50;;;;;;;9.82;8.85;;;12.20;99.90;;;;;;5046242;28;20221;-66
2021/08/29 04:15:18;;;;;;;9.88;8.90;;;12.20;99.90;;;;;;5046766;28;20201;-66
2021/08/29 04:17:48;;;;;;;10.07;8.90;;;12.20;99.90;;;;;;5043183;28;20302;-66
2021/08/29 04:20:15;;;;;;;10.02;8.52;;;12.10;99.90;;;;;;5052310;28;20292;-66
2021/08/29 04:22:42;;;;;;;8.85;8.02;;;12.10;99.90;;;;;;5051790;28;20204;-66
2021/08/29 04:25:11;;;;;;;10.90;9.95;;;12.10;99.90;;;;;;5048736;28;20221;-66
2021/08/29 04:27:39;;;;;;;10.18;8.90;;;12.10;99.90;;;;;;5045662;28;20232;-66
2021/08/29 04:30:07;;;;;;;9.90;8.73;;;12.20;99.90;;;;;;5046280;28;20217;-66
2021/08/29 04:32:34;;;;;;;10.20;9.23;;;12.20;99.90;;;;;;5045850;28;20210;-66
2021/08/29 04:35:02;;;;;;;10.13;8.95;;;12.20;99.90;;;;;;5043142;28;20293;-66
2021/08/29 04:37:29;;;;;;;10.27;9.35;;;12.30;99.90;;;;;;5045775;28;20237;-66
2021/08/29 04:39:56;;;;;;;9.77;8.82;;;12.30;99.90;;;;;;5046668;28;20210;-66
2021/08/29 04:42:23;;;;;;;9.85;8.75;;;12.30;99.90;;;;;;5046150;28;20206;-65
2021/08/29 04:44:49;;;;;;;9.50;8.05;;;12.30;99.90;;;;;;5045763;28;20267;-66
2021/08/29 04:47:16;;;;;;;9.85;8.10;;;12.40;99.90;;;;;;5037709;28;20288;-66
2021/08/29 04:49:43;;;;;;;8.70;7.90;;;12.30;99.90;;;;;;5046113;28;20711;-66
2021/08/29 04:52:11;;;;;;;9.63;8.63;;;12.50;99.90;;;;;;5046204;28;20209;-66
2021/08/29 04:54:38;;;;;;;9.05;8.25;;;12.30;99.90;;;;;;5050297;28;20225;-66
2021/08/29 04:57:05;;;;;;;9.25;8.40;;;12.30;99.90;;;;;;5044093;28;20276;-66
2021/08/29 04:59:32;;;;;;;9.73;8.82;;;12.40;99.90;;;;;;5045769;28;20296;-66
2021/08/29 05:01:59;;;;;;;10.02;9.02;;;12.50;99.90;;;;;;5051404;28;20202;-66
2021/08/29 05:04:26;;;;;;;8.77;7.78;;;12.40;99.90;;;;;;5046109;28;20208;-67
2021/08/29 05:06:53;;;;;;;8.93;8.02;;;12.30;99.90;;;;;;5045759;28;20224;-66
2021/08/29 05:09:21;;;;;;;9.00;8.10;;;12.30;99.90;;;;;;5045281;28;20369;-66
2021/08/29 05:11:48;;;;;;;9.60;8.70;;;12.30;99.90;;;;;;5054153;28;20576;-66
2021/08/29 05:14:14;;;;;;;8.98;8.18;;;12.40;99.90;;;;;;5045983;28;20201;-66
2021/08/29 05:16:41;;;;;;;10.02;8.98;;;12.30;99.90;;;;;;5045016;28;20235;-66
2021/08/29 05:19:08;;;;;;;9.85;8.95;;;12.30;99.90;;;;;;5042143;28;20209;-66
2021/08/29 05:21:35;;;;;;;11.23;9.30;;;12.40;99.90;;;;;;5046339;28;20224;-67
2021/08/29 05:24:02;;;;;;;9.13;8.20;;;12.40;99.90;;;;;;5046397;28;20304;-66
2021/08/29 05:26:30;;;;;;;9.35;8.45;;;12.40;99.90;;;;;;5049948;28;20206;-66
2021/08/29 05:28:57;;;;;;;9.23;8.32;;;12.40;99.90;;;;;;5045354;28;20292;-67
2021/08/29 05:31:23;;;;;;;9.18;8.32;;;12.40;99.90;;;;;;5051082;28;20202;-67
2021/08/29 05:33:50;;;;;;;8.90;8.00;;;12.50;99.90;;;;;;5045131;28;20205;-67
2021/08/29 05:36:17;;;;;;;10.52;9.50;;;12.50;99.90;;;;;;5044984;28;20212;-66
2021/08/29 05:38:44;;;;;;;8.68;7.82;;;12.50;99.90;;;;;;5045279;28;20222;-67
2021/08/29 05:41:11;;;;;;;9.73;8.82;;;12.50;99.90;;;;;;5047309;28;20205;-67
2021/08/29 05:43:39;;;;;;;10.20;8.93;;;12.50;99.90;;;;;;5044039;28;20685;-67
2021/08/29 05:46:06;;;;;;;8.93;8.02;;;12.40;99.90;;;;;;5047205;28;20212;-67
2021/08/29 05:48:33;;;;;;;9.13;8.30;;;12.40;99.90;;;;;;5053142;28;20189;-66
2021/08/29 05:51:00;;;;;;;9.15;8.25;;;12.50;99.90;;;;;;5050848;28;20328;-66
2021/08/29 05:53:27;;;;;;;10.05;9.07;;;12.50;99.90;;;;;;5049385;28;20202;-66
2021/08/29 05:55:55;;;;;;;9.73;8.73;;;12.50;99.90;;;;;;5048344;28;20220;-66
2021/08/29 05:58:22;;;;;;;8.65;7.80;;;12.60;99.90;;;;;;5048302;28;20320;-66
2021/08/29 06:00:50;;;;;;;9.88;8.93;;;12.50;99.90;;;;;;5049809;28;20201;-66
2021/08/29 06:03:17;;;;;;;9.38;8.40;;;12.60;99.90;;;;;;5045429;28;20198;-66
2021/08/29 06:05:44;;;;;;;9.00;8.10;;;12.60;99.90;;;;;;5048743;28;20992;-67
2021/08/29 06:08:10;;;;;;;9.45;8.55;;;12.60;99.90;;;;;;5048510;28;20202;-66
2021/08/29 06:10:37;;;;;;;8.48;7.68;;;12.60;99.90;;;;;;5048112;28;20284;-65
2021/08/29 06:13:04;;;;;;;8.70;7.78;;;12.60;99.90;;;;;;5047918;28;20212;-65
2021/08/29 06:15:31;;;;;;;9.20;8.40;;;12.60;99.90;;;;;;5047391;28;20198;-66
2021/08/29 06:17:59;;;;;;;9.55;8.65;;;12.70;99.90;;;;;;5047268;28;20226;-66
2021/08/29 06:20:26;;;;;;;9.15;8.25;;;12.90;99.90;;;;;;5045663;28;20201;-66
2021/08/29 06:22:53;;;;;;;9.38;8.50;;;12.90;99.90;;;;;;5045909;28;20205;-66
2021/08/29 06:25:20;;;;;;;8.18;7.38;;;12.90;99.90;;;;;;5052036;28;20204;-66
2021/08/29 06:27:46;;;;;;;7.57;6.82;;;13.00;99.90;;;;;;5043991;28;20193;-67
2021/08/29 06:30:14;;;;;;;8.00;7.30;;;13.00;99.90;;;;;;5044759;28;20601;-65
2021/08/29 06:32:40;;;;;;;8.50;7.63;;;13.10;99.90;;;;;;5048199;28;20202;-65
2021/08/29 06:35:10;;;;;;;7.63;6.93;;;13.10;99.90;;;;;;5052316;28;20208;-64
2021/08/29 06:37:37;;;;;;;7.60;6.80;;;13.10;99.90;;;;;;5050054;28;20852;-65
2021/08/29 06:40:05;;;;;;;7.55;6.85;;;13.20;99.90;;;;;;5048878;28;20300;-65
2021/08/29 06:42:32;;;;;;;7.53;6.82;;;13.20;99.90;;;;;;5052845;28;20210;-65
2021/08/29 06:44:59;;;;;;;7.20;6.50;;;13.20;99.90;;;;;;5048038;28;20232;-65
2021/08/29 06:47:25;;;;;;;7.60;6.90;;;13.20;99.90;;;;;;5048033;28;20213;-65
2021/08/29 06:49:52;;;;;;;6.88;6.28;;;13.20;99.90;;;;;;5048124;28;20296;-65
2021/08/29 06:52:20;;;;;;;6.53;5.93;;;13.30;99.90;;;;;;5049638;28;20297;-65
2021/08/29 06:54:47;;;;;;;6.20;5.70;;;13.40;99.90;;;;;;5048598;28;20193;-64
2021/08/29 06:57:14;;;;;;;6.70;6.10;;;13.40;99.90;;;;;;5047069;28;20241;-65
2021/08/29 06:59:41;;;;;;;6.40;5.93;;;13.40;99.90;;;;;;5047746;28;20209;-66
2021/08/29 07:02:08;;;;;;;6.10;5.60;;;13.50;99.90;;;;;;5047663;28;20248;-65
2021/08/29 07:04:35;;;;;;;5.65;5.18;;;13.70;99.90;;;;;;5047469;28;20198;-65
2021/08/29 07:07:02;;;;;;;5.28;4.88;;;13.50;99.90;;;;;;5046995;28;20204;-67
2021/08/29 07:09:30;;;;;;;5.50;5.00;;;13.50;99.90;;;;;;5047766;28;20305;-67
2021/08/29 07:11:57;;;;;;;5.05;4.60;;;13.50;99.90;;;;;;5048016;28;20251;-67
2021/08/29 07:14:24;;;;;;;4.60;4.30;;;13.50;99.90;;;;;;5047417;28;20225;-67
2021/08/29 07:16:51;;;;;;;5.32;4.93;;;13.60;99.90;;;;;;5047239;28;20289;-67
2021/08/29 07:19:18;;;;;;;4.95;4.55;;;13.60;99.90;;;;;;5050251;28;20284;-67
2021/08/29 07:21:44;;;;;;;4.57;4.28;;;13.70;99.90;;;;;;5054045;28;20208;-67
2021/08/29 07:24:11;;;;;;;4.65;4.35;;;13.70;99.90;;;;;;5047432;28;20233;-67
2021/08/29 07:26:40;;;;;;;4.55;4.20;;;13.70;99.90;;;;;;5043072;28;20280;-67
2021/08/29 07:29:06;;;;;;;3.35;3.15;;;13.70;99.90;;;;;;5049208;28;20224;-67
2021/08/29 07:31:33;;;;;;;3.30;3.10;;;13.70;99.90;;;;;;5051679;28;20289;-67
2021/08/29 07:34:00;;;;;;;3.08;2.88;;;13.80;99.90;;;;;;5047189;28;20220;-67
2021/08/29 07:36:27;;;;;;;3.55;3.25;;;13.90;99.90;;;;;;5051060;28;20301;-67
2021/08/29 07:38:54;;;;;;;2.92;2.72;;;14.00;99.90;;;;;;5050143;28;20327;-67
2021/08/29 07:41:21;;;;;;;3.55;3.25;;;14.10;99.90;;;;;;5051855;28;20551;-67
2021/08/29 07:43:49;;;;;;;2.50;2.30;;;14.20;99.90;;;;;;5050390;28;20202;-67
2021/08/29 07:46:16;;;;;;;2.83;2.63;;;14.30;99.90;;;;;;5050832;28;20233;-68
2021/08/29 07:48:43;;;;;;;2.85;2.70;;;14.40;99.90;;;;;;5046218;28;20874;-66
2021/08/29 07:51:10;;;;;;;3.20;2.58;;;14.40;99.90;;;;;;5049752;28;20574;-66
2021/08/29 07:53:38;;;;;;;2.25;2.15;;;14.40;99.90;;;;;;5050420;28;20251;-66
2021/08/29 07:56:09;;;;;;;2.20;2.10;;;14.20;99.90;;;;;;5046800;28;20215;-67
2021/08/29 07:58:36;;;;;;;2.40;2.30;;;14.20;99.90;;;;;;5049615;28;20225;-67
2021/08/29 08:01:04;;;;;;;2.05;1.95;;;14.10;99.90;;;;;;5046892;28;20292;-67
2021/08/29 08:03:31;;;;;;;1.95;1.85;;;14.00;99.90;;;;;;5047001;28;20209;-66
2021/08/29 08:05:58;;;;;;;3.28;2.90;;;14.00;99.90;;;;;;5045378;28;20287;-67
2021/08/29 08:08:25;;;;;;;2.25;2.15;;;14.10;99.90;;;;;;5045387;28;20206;-66
2021/08/29 08:10:52;;;;;;;2.35;2.25;;;14.00;99.90;;;;;;5045890;28;20734;-67
2021/08/29 08:13:18;;;;;;;3.30;3.00;;;14.00;99.90;;;;;;5039700;28;20260;-67
2021/08/29 08:15:45;;;;;;;2.85;2.65;;;14.00;99.90;;;;;;5046077;28;20264;-67
2021/08/29 08:18:13;;;;;;;2.75;2.55;;;14.10;99.90;;;;;;5048231;28;20332;-67
2021/08/29 08:20:40;;;;;;;2.50;2.40;;;14.00;99.90;;;;;;5047053;28;20346;-66
2021/08/29 08:23:07;;;;;;;2.05;1.95;;;13.90;99.90;;;;;;5045845;28;20210;-67
2021/08/29 08:25:35;;;;;;;2.05;1.95;;;13.90;99.90;;;;;;5047330;28;20201;-67
2021/08/29 08:28:01;;;;;;;2.70;2.53;;;14.00;99.90;;;;;;5045996;28;20793;-67
2021/08/29 08:30:28;;;;;;;2.17;2.08;;;14.00;99.90;;;;;;5045988;28;20912;-67
2021/08/29 08:32:55;;;;;;;3.20;2.90;;;14.20;99.90;;;;;;5046117;28;20260;-67
2021/08/29 08:35:24;;;;;;;3.15;2.25;;;14.30;99.90;;;;;;5045694;28;20207;-67
2021/08/29 08:37:50;;;;;;;2.13;2.00;;;14.40;99.90;;;;;;5047027;28;20344;-67
2021/08/29 08:40:21;;;;;;;2.10;2.00;;;14.60;99.90;;;;;;5042547;28;20225;-67
2021/08/29 08:42:48;;;;;;;2.20;2.10;;;14.70;99.90;;;;;;5035624;28;20198;-67
2021/08/29 08:47:53;;;;;;;2.40;2.30;;;15.00;99.90;;;;;;5026325;22;20581;-71
2021/08/29 08:50:23;;;;;;;3.35;2.30;;;15.20;99.90;;;;;;5013796;22;20272;-70
2021/08/29 08:52:51;;;;;;;2.47;2.38;;;15.40;99.90;;;;;;5006600;28;20210;-70
2021/08/29 08:55:18;;;;;;;2.38;2.28;;;15.30;99.90;;;;;;5005364;28;20214;-68
2021/08/29 08:57:45;;;;;;;2.08;1.88;;;15.40;99.90;;;;;;5003675;28;20231;-69
2021/08/29 09:00:13;;;;;;;3.30;1.70;;;15.30;99.90;;;;;;5004740;28;20218;-69
2021/08/29 09:02:41;;;;;;;2.30;2.10;;;15.30;99.90;;;;;;5006904;28;20211;-69
2021/08/29 09:05:11;;;;;;;1.90;1.80;;;15.20;99.90;;;;;;5014623;23;20206;-70
2021/08/29 09:07:39;;;;;;;2.58;2.00;;;15.20;99.90;;;;;;5008040;28;20219;-70
2021/08/29 09:12:59;;;;;;;1.88;1.77;;;15.20;99.90;;;;;;4986114;26;20329;-69
2021/08/29 09:15:26;;;;;;;1.88;1.77;;;15.30;99.90;;;;;;5050030;22;20229;-70
2021/08/29 09:17:53;;;;;;;2.15;2.05;;;15.40;99.90;;;;;;5026394;28;20565;-70
2021/08/29 09:20:22;;;;;;;1.60;1.50;;;15.30;99.90;;;;;;5026477;28;20240;-70
2021/08/29 09:22:53;;;;;;;1.20;1.20;;;15.20;99.90;;;;;;5026797;28;20348;-70
2021/08/29 09:25:21;;;;;;;1.52;1.52;;;15.20;99.90;;;;;;5038383;22;20202;-69
2021/08/29 09:27:50;;;;;;;1.95;1.85;;;15.10;99.90;;;;;;5009464;28;20215;-69
2021/08/29 09:30:19;;;;;;;1.42;1.42;;;15.10;99.90;;;;;;5014575;23;20203;-70
2021/08/29 09:32:52;;;;;;;1.70;1.60;;;15.30;99.90;;;;;;5000804;28;20254;-70
2021/08/29 09:35:19;;;;;;;1.50;1.50;;;15.40;99.90;;;;;;4997740;23;20316;-69
2021/08/29 09:37:46;;;;;;;1.38;1.33;;;15.30;99.90;;;;;;5026330;28;20220;-68
2021/08/29 09:40:19;;;;;;;1.73;1.63;;;15.30;99.90;;;;;;5026994;28;20568;-69
2021/08/29 09:42:49;;;;;;;1.20;1.20;;;15.00;99.90;;;;;;5026185;28;20197;-69
2021/08/29 09:45:27;;;;;;;1.27;1.27;;;14.90;99.90;;;;;;5031167;22;20214;-70
2021/08/29 09:47:58;;;;;;;1.70;1.60;;;14.80;99.90;;;;;;4967740;28;20208;-70
2021/08/29 09:50:25;;;;;;;1.73;1.67;;;14.90;99.90;;;;;;4982283;23;20208;-69
2021/08/29 09:53:04;;;;;;;1.80;1.70;;;15.00;99.90;;;;;;5026111;28;20202;-69
2021/08/29 09:55:34;;;;;;;1.35;1.35;;;14.90;99.90;;;;;;5026271;28;20688;-69
2021/08/29 09:58:19;;;;;;;4.90;1.60;;;15.20;99.90;;;;;;5026030;28;20209;-69
2021/08/29 10:01:08;;;;;;;1.40;1.30;;;15.20;99.90;;;;;;5032095;28;20202;-69
2021/08/29 10:03:35;;;;;;;1.85;1.75;;;15.40;99.90;;;;;;5046347;28;20252;-69
2021/08/29 10:06:29;;;;;;;1.30;1.30;;;15.60;99.90;;;;;;5046430;28;20205;-69
2021/08/29 10:08:58;;;;;;;1.00;1.00;;;15.50;99.90;;;;;;4987307;28;20246;-69
2021/08/29 10:11:28;;;;;;;1.02;1.02;;;15.60;99.90;;;;;;5031533;28;20203;-69
2021/08/29 10:13:56;;;;;;;0.90;0.90;;;15.70;99.90;;;;;;5026156;28;20206;-69
2021/08/29 10:16:25;;;;;;;1.05;1.05;;;15.70;99.90;;;;;;5026064;28;20198;-69
2021/08/29 10:18:53;;;;;;;0.95;0.95;;;15.70;99.90;;;;;;5026258;28;20245;-69
2021/08/29 10:21:25;;;;;;;1.20;1.10;;;15.70;99.90;;;;;;5023953;22;20239;-70
2021/08/29 10:23:55;;;;;;;1.88;1.77;;;15.80;99.90;;;;;;5005788;28;20207;-70
2021/08/29 10:26:23;;;;;;;1.85;1.70;;;15.70;99.90;;;;;;5032474;23;20237;-69
2021/08/29 10:29:02;;;;;;;1.70;1.60;;;15.40;99.90;;;;;;5045420;28;20194;-69
2021/08/29 10:31:32;;;;;;;1.90;1.80;;;15.30;99.90;;;;;;5043920;28;20274;-69
2021/08/29 10:34:00;;;;;;;2.40;2.30;;;15.10;99.90;;;;;;5039295;28;20204;-69
2021/08/29 10:36:27;;;;;;;1.75;1.65;;;15.00;99.90;;;;;;5045300;22;20231;-71
2021/08/29 10:38:54;;;;;;;1.80;1.70;;;14.90;99.90;;;;;;5009223;28;20235;-71
2021/08/29 10:41:24;;;;;;;1.98;1.88;;;15.00;99.90;;;;;;5015091;22;20219;-69
2021/08/29 10:43:53;;;;;;;1.95;1.85;;;15.10;99.90;;;;;;5002722;28;20588;-69
2021/08/29 10:46:21;;;;;;;1.50;1.48;;;15.00;99.90;;;;;;5009867;28;20199;-69
2021/08/29 10:48:51;;;;;;;1.85;1.75;;;15.10;99.90;;;;;;5008531;28;20396;-69
2021/08/29 10:51:20;;;;;;;1.90;1.80;;;15.30;99.90;;;;;;5008140;28;20290;-69
2021/08/29 10:53:51;;;;;;;1.33;1.33;;;15.40;99.90;;;;;;5009315;28;20673;-69
2021/08/29 10:56:37;;;;;;;1.30;1.30;;;15.50;99.90;;;;;;5009204;28;20234;-70
2021/08/29 10:59:28;;;;;;;1.40;1.10;;;15.50;99.90;;;;;;5008724;28;20238;-70
2021/08/29 11:02:10;;;;;;;1.30;1.30;;;15.60;99.90;;;;;;5009077;28;20210;-69
2021/08/29 11:04:48;;;;;;;1.60;1.50;;;15.50;99.90;;;;;;5008302;28;20214;-70
2021/08/29 11:07:40;;;;;;;1.40;1.40;;;15.40;99.90;;;;;;5008395;28;20559;-70
2021/08/29 11:10:09;;;;;;;1.70;1.60;;;15.40;99.90;;;;;;5010517;28;20214;-70
2021/08/29 11:12:37;;;;;;;1.80;1.70;;;15.30;99.90;;;;;;5035378;23;20329;-72
2021/08/29 11:15:07;;;;;;;2.22;2.13;;;15.30;99.90;;;;;;5029307;28;20293;-71
2021/08/29 11:17:36;;;;;;;2.17;2.08;;;15.30;99.90;;;;;;5028060;28;20202;-72
2021/08/29 11:20:15;;;;;;;2.58;2.38;;;15.40;99.90;;;;;;5028205;28;20269;-72
2021/08/29 11:22:43;;;;;;;2.50;2.30;;;15.40;99.90;;;;;;5034609;22;20229;-70
2021/08/29 11:25:22;;;;;;;2.70;2.60;;;15.40;99.90;;;;;;5027653;28;20202;-70
2021/08/29 11:28:00;;;;;;;2.40;2.20;;;15.30;99.90;;;;;;5014111;28;20207;-70
2021/08/29 11:30:46;;;;;;;2.28;2.08;;;15.20;99.90;;;;;;5009272;28;20211;-69
2021/08/29 11:33:15;;;;;;;2.63;2.53;;;15.10;99.90;;;;;;5008980;28;20203;-69
2021/08/29 11:35:48;;;;;;;2.70;2.50;;;15.10;99.90;;;;;;5012694;28;20619;-69
2021/08/29 11:38:17;;;;;;;5.55;3.08;;;14.80;99.90;;;;;;5012062;28;20713;-69
2021/08/29 11:40:55;;;;;;;3.35;3.15;;;14.70;99.90;;;;;;5008728;28;20233;-69
2021/08/29 11:43:33;;;;;;;2.83;2.70;;;14.60;99.90;;;;;;5020370;28;20233;-69
2021/08/29 11:46:09;;;;;;;2.30;2.20;;;14.70;99.90;;;;;;5028282;28;20197;-69
2021/08/29 11:48:36;;;;;;;3.30;3.00;;;14.70;99.90;;;;;;5008091;28;20210;-68
2021/08/29 11:51:04;;;;;;;3.38;3.17;;;14.60;99.90;;;;;;5008823;28;20589;-68
2021/08/29 11:53:44;;;;;;;2.38;2.22;;;14.50;99.90;;;;;;5008040;28;20207;-68
2021/08/29 11:56:11;;;;;;;5.22;1.65;;;14.40;99.90;;;;;;5008264;28;20202;-68
2021/08/29 11:58:38;;;;;;;1.63;1.52;;;14.40;99.90;;;;;;5025379;28;20206;-68
2021/08/29 12:01:06;;;;;;;1.10;1.10;;;14.30;99.90;;;;;;5009194;28;20337;-68
2021/08/29 12:03:35;;;;;;;2.80;2.60;;;14.40;99.90;;;;;;5008326;28;20379;-67
2021/08/29 12:06:07;;;;;;;2.10;2.00;;;14.50;99.90;;;;;;5007828;28;20345;-68
2021/08/29 12:08:50;;;;;;;2.75;2.42;;;14.60;99.90;;;;;;5006512;28;20591;-67
2021/08/29 12:11:18;;;;;;;2.50;2.30;;;14.60;99.90;;;;;;5016181;28;20602;-67
2021/08/29 12:13:45;;;;;;;3.10;2.90;;;14.60;99.90;;;;;;5039733;28;20292;-68
2021/08/29 12:16:13;;;;;;;3.67;3.38;;;14.70;99.90;;;;;;5040256;28;20668;-68
2021/08/29 12:18:41;;;;;;;4.25;3.95;;;14.80;99.90;;;;;;5021341;28;20212;-68
2021/08/29 12:21:10;;;;;;;4.85;4.45;;;14.80;99.90;;;;;;5027658;28;20826;-68
2021/08/29 12:23:38;;;;;;;4.00;3.70;;;14.70;99.90;;;;;;5027516;28;20206;-68
2021/08/29 12:26:07;;;;;;;6.05;5.53;;;14.80;99.90;;;;;;5033773;23;20226;-69
2021/08/29 12:28:35;;;;;;;5.25;4.38;;;14.70;99.90;;;;;;5047459;28;20209;-68
2021/08/29 12:31:03;;;;;;;5.55;5.03;;;14.70;99.90;;;;;;5049330;22;20325;-68
2021/08/29 12:33:34;;;;;;;5.90;5.30;;;14.70;99.90;;;;;;5027773;28;20208;-67
2021/08/29 12:36:12;;;;;;;5.80;5.40;;;14.70;99.90;;;;;;5027189;28;20202;-67
2021/08/29 12:38:38;;;;;;;5.97;5.47;;;14.80;99.90;;;;;;5026518;28;20881;-67
2021/08/29 12:41:05;;;;;;;6.30;5.70;;;15.00;99.90;;;;;;5027234;28;20206;-67
2021/08/29 12:43:32;;;;;;;7.15;5.47;;;15.20;99.90;;;;;;5026896;28;20735;-67
2021/08/29 12:45:59;;;;;;;6.45;5.85;;;15.50;99.90;;;;;;5026250;28;20278;-67
2021/08/29 12:48:26;;;;;;;7.40;6.20;;;15.60;99.90;;;;;;5026475;28;20202;-67
2021/08/29 12:50:59;;;;;;;6.60;6.00;;;16.00;99.90;;;;;;5027433;28;20209;-67
2021/08/29 12:53:27;;;;;;;4.57;4.28;;;16.30;99.90;;;;;;5027294;28;20474;-67
2021/08/29 12:55:55;;;;;;;5.70;5.25;;;16.30;99.90;;;;;;5025342;28;20210;-67
2021/08/29 12:58:25;;;;;;;5.45;5.00;;;16.30;99.90;;;;;;5026480;28;20195;-68